Time;durP1;ratioP1;P1;durP2;ratioP2;P2;SDS_P1;SDS_P2;PMS_P1;PMS_P2;Temp;Humidity;BMP_temperature;BMP_pressure;BME280_temperature;BME280_humidity;BME280_pressure;Samples;Min_cycle;Max_cycle;Signal;HPM_P1;HPM_P2
2023/09/12 00:01:05;;;;;;;28.90;22.40;;;23.70;77.20;;;;;;5029292;28;20455;-70
2023/09/12 00:03:31;;;;;;;28.23;22.05;;;23.70;77.30;;;;;;5022698;28;20033;-70
2023/09/12 00:05:59;;;;;;;28.77;21.05;;;23.70;77.20;;;;;;5053968;28;20116;-70
2023/09/12 00:08:25;;;;;;;26.08;21.50;;;23.70;77.20;;;;;;5020705;28;20030;-71
2023/09/12 00:11:01;;;;;;;29.30;22.52;;;23.70;77.10;;;;;;5025104;28;20029;-70
2023/09/12 00:13:26;;;;;;;26.55;21.42;;;23.70;77.00;;;;;;5019976;28;20150;-70
2023/09/12 00:15:52;;;;;;;27.63;20.95;;;23.70;77.00;;;;;;5020433;28;20415;-70
2023/09/12 00:18:18;;;;;;;29.77;21.80;;;23.70;77.20;;;;;;5024656;28;20104;-70
2023/09/12 00:20:43;;;;;;;26.17;21.70;;;23.70;77.30;;;;;;5024717;28;20025;-71
2023/09/12 00:23:09;;;;;;;25.35;21.45;;;23.60;77.30;;;;;;5020880;28;20033;-71
2023/09/12 00:25:35;;;;;;;26.20;20.67;;;23.60;77.20;;;;;;5021492;28;20060;-71
2023/09/12 00:28:01;;;;;;;27.17;22.02;;;23.60;77.20;;;;;;5019804;28;20090;-70
2023/09/12 00:30:26;;;;;;;29.80;22.58;;;23.60;77.20;;;;;;5027570;28;20022;-70
2023/09/12 00:32:52;;;;;;;27.80;22.85;;;23.60;77.20;;;;;;5023548;28;20033;-70
2023/09/12 00:35:18;;;;;;;27.83;23.05;;;23.60;77.20;;;;;;5026962;28;20031;-70
2023/09/12 00:37:43;;;;;;;26.65;20.77;;;23.50;77.20;;;;;;5026324;28;20109;-70
2023/09/12 00:40:10;;;;;;;26.15;21.77;;;23.50;77.30;;;;;;5026082;28;20430;-70
2023/09/12 00:42:35;;;;;;;30.65;24.80;;;23.50;77.40;;;;;;5018657;28;20064;-70
2023/09/12 00:45:01;;;;;;;28.15;21.15;;;23.50;77.50;;;;;;5028737;28;20053;-71
2023/09/12 00:47:29;;;;;;;29.38;21.95;;;23.50;77.50;;;;;;5020761;28;20458;-70
2023/09/12 00:49:56;;;;;;;28.92;22.48;;;23.50;77.50;;;;;;5025609;28;20026;-70
2023/09/12 00:52:24;;;;;;;26.95;20.85;;;23.50;77.50;;;;;;5022088;28;20030;-70
2023/09/12 00:54:51;;;;;;;27.98;22.65;;;23.40;77.50;;;;;;5050254;28;20022;-70
2023/09/12 00:57:17;;;;;;;26.00;22.20;;;23.40;77.50;;;;;;5016686;28;20030;-70
2023/09/12 00:59:43;;;;;;;27.77;22.17;;;23.50;77.50;;;;;;5025028;28;20025;-70
2023/09/12 01:02:09;;;;;;;29.98;23.23;;;23.50;77.40;;;;;;5017967;28;20037;-70
2023/09/12 01:04:36;;;;;;;27.42;22.90;;;23.50;77.40;;;;;;5022020;28;20387;-70
2023/09/12 01:07:04;;;;;;;27.33;22.15;;;23.50;77.30;;;;;;5025996;28;20033;-70
2023/09/12 01:09:31;;;;;;;26.80;21.98;;;23.50;77.20;;;;;;5026851;28;20375;-70
2023/09/12 01:11:57;;;;;;;30.50;23.55;;;23.50;77.10;;;;;;5026421;28;20041;-70
2023/09/12 01:14:23;;;;;;;29.48;23.17;;;23.50;77.10;;;;;;5027109;28;20094;-70
2023/09/12 01:16:49;;;;;;;28.00;22.67;;;23.40;77.00;;;;;;5029597;28;20034;-70
2023/09/12 01:19:17;;;;;;;24.92;21.15;;;23.40;77.10;;;;;;5027830;28;20366;-70
2023/09/12 01:22:04;;;;;;;28.38;20.98;;;23.40;77.20;;;;;;5032524;28;20022;-70
2023/09/12 01:24:57;;;;;;;27.80;22.80;;;23.30;77.30;;;;;;5023562;28;20117;-70
2023/09/12 01:27:29;;;;;;;28.58;21.48;;;23.30;77.40;;;;;;5028689;28;20121;-70
2023/09/12 01:30:00;;;;;;;28.00;22.15;;;23.20;77.50;;;;;;5026188;28;20022;-70
2023/09/12 01:32:26;;;;;;;;;;;23.20;77.50;;;;;;5029275;28;20033;-70
2023/09/12 01:34:52;;;;;;;24.30;19.20;;;23.20;77.50;;;;;;5038716;28;19909;-70
2023/09/12 01:37:18;;;;;;;29.15;21.65;;;23.10;77.50;;;;;;5019550;28;20045;-70
2023/09/12 01:39:44;;;;;;;27.73;22.25;;;23.10;77.50;;;;;;5031361;28;20033;-70
2023/09/12 01:42:16;;;;;;;29.90;22.90;;;23.10;77.60;;;;;;5016424;28;20042;-70
2023/09/12 01:44:44;;;;;;;28.33;21.00;;;23.00;77.60;;;;;;5023871;28;20465;-70
2023/09/12 01:47:12;;;;;;;25.33;20.83;;;23.00;77.70;;;;;;5025972;28;20033;-70
2023/09/12 01:49:40;;;;;;;29.02;23.00;;;23.00;77.70;;;;;;5028179;28;20137;-70
2023/09/12 01:52:07;;;;;;;26.40;20.85;;;23.00;77.70;;;;;;5030487;28;20022;-70
2023/09/12 01:54:34;;;;;;;27.00;21.33;;;22.90;77.70;;;;;;5024449;28;20076;-70
2023/09/12 01:57:01;;;;;;;26.42;21.10;;;23.00;77.80;;;;;;5024149;28;20040;-70
2023/09/12 01:59:28;;;;;;;26.33;21.40;;;22.90;77.80;;;;;;5031749;28;20430;-70
2023/09/12 02:01:54;;;;;;;27.83;22.00;;;22.90;77.80;;;;;;5023696;28;20048;-70
2023/09/12 02:04:19;;;;;;;28.15;21.38;;;22.90;77.80;;;;;;5021599;28;21216;-70
2023/09/12 02:06:45;;;;;;;25.75;21.02;;;22.90;77.90;;;;;;5022502;28;20446;-70
2023/09/12 02:09:11;;;;;;;26.90;20.23;;;22.90;77.80;;;;;;5025656;28;20112;-70
2023/09/12 02:11:36;;;;;;;28.08;21.30;;;22.90;77.90;;;;;;5027636;28;20025;-70
2023/09/12 02:14:02;;;;;;;25.83;20.45;;;22.90;78.00;;;;;;5027560;28;20044;-70
2023/09/12 02:16:30;;;;;;;27.60;21.27;;;22.80;77.90;;;;;;5024162;28;20014;-70
2023/09/12 02:18:56;;;;;;;26.23;20.67;;;22.80;77.90;;;;;;5020461;28;20121;-70
2023/09/12 02:21:22;;;;;;;26.00;19.85;;;22.80;78.00;;;;;;5026525;28;20458;-70
2023/09/12 02:23:47;;;;;;;26.50;20.55;;;22.80;78.00;;;;;;5021303;28;20037;-70
2023/09/12 02:26:13;;;;;;;25.23;19.92;;;22.80;78.00;;;;;;5019670;28;20018;-70
2023/09/12 02:28:39;;;;;;;27.75;20.42;;;22.80;78.00;;;;;;5028120;28;20362;-70
2023/09/12 02:31:14;;;;;;;24.85;19.33;;;22.80;78.00;;;;;;5023132;28;20312;-70
2023/09/12 02:33:40;;;;;;;23.98;19.95;;;22.80;78.00;;;;;;5026118;28;20036;-70
2023/09/12 02:36:06;;;;;;;27.77;20.08;;;22.70;77.90;;;;;;5025039;28;20017;-70
2023/09/12 02:38:32;;;;;;;25.27;18.15;;;22.80;78.00;;;;;;5027991;28;20064;-70
2023/09/12 02:40:58;;;;;;;24.08;19.63;;;22.70;78.00;;;;;;5019383;28;20124;-70
2023/09/12 02:43:24;;;;;;;24.70;19.98;;;22.70;78.00;;;;;;5026799;28;20334;-70
2023/09/12 02:45:50;;;;;;;25.52;19.88;;;22.70;78.00;;;;;;5024117;28;20029;-70
2023/09/12 02:48:15;;;;;;;24.58;20.02;;;22.70;78.00;;;;;;5026528;28;20033;-70
2023/09/12 02:50:41;;;;;;;25.65;19.00;;;22.70;78.10;;;;;;5025518;28;20033;-70
2023/09/12 02:53:07;;;;;;;23.70;19.55;;;22.70;78.20;;;;;;5018808;28;20131;-70
2023/09/12 02:55:33;;;;;;;24.67;19.33;;;22.60;78.20;;;;;;5010793;28;20112;-70
2023/09/12 02:57:59;;;;;;;27.10;19.48;;;22.60;78.10;;;;;;5016862;28;20030;-70
2023/09/12 03:00:25;;;;;;;27.60;19.92;;;22.60;78.20;;;;;;5027798;28;20017;-71
2023/09/12 03:02:50;;;;;;;26.15;20.30;;;22.60;78.20;;;;;;5009868;28;20034;-70
2023/09/12 03:05:16;;;;;;;23.85;20.48;;;22.60;78.10;;;;;;5025901;28;20342;-70
2023/09/12 03:07:42;;;;;;;24.90;19.30;;;22.60;78.20;;;;;;5021491;28;20032;-70
2023/09/12 03:10:08;;;;;;;23.75;19.27;;;22.50;78.10;;;;;;5028379;28;20112;-71
2023/09/12 03:12:36;;;;;;;28.30;20.63;;;22.50;78.10;;;;;;5020456;28;20045;-70
2023/09/12 03:15:03;;;;;;;23.10;18.55;;;22.50;78.10;;;;;;5003760;28;20021;-70
2023/09/12 03:17:29;;;;;;;27.60;20.90;;;22.50;78.10;;;;;;5027494;28;20403;-70
2023/09/12 03:19:54;;;;;;;23.35;19.40;;;22.50;78.10;;;;;;5024953;28;20022;-70
2023/09/12 03:22:20;;;;;;;23.50;18.65;;;22.50;78.20;;;;;;5027609;28;20153;-70
2023/09/12 03:24:47;;;;;;;23.83;19.25;;;22.50;78.20;;;;;;5025755;28;20392;-70
2023/09/12 03:27:13;;;;;;;23.33;19.00;;;22.50;78.20;;;;;;5041441;28;20055;-70
2023/09/12 03:29:39;;;;;;;25.50;20.27;;;22.50;78.30;;;;;;5028443;28;20029;-68
2023/09/12 03:32:05;;;;;;;27.35;20.10;;;22.50;78.30;;;;;;4999737;28;20403;-67
2023/09/12 03:34:31;;;;;;;23.92;18.98;;;22.50;78.30;;;;;;5021915;28;20112;-67
2023/09/12 03:36:56;;;;;;;26.95;19.35;;;22.50;78.30;;;;;;5013661;28;20021;-67
2023/09/12 03:39:22;;;;;;;28.13;19.98;;;22.40;78.20;;;;;;5024082;28;20080;-67
2023/09/12 03:41:48;;;;;;;25.20;20.65;;;22.40;78.30;;;;;;5014371;28;20037;-67
2023/09/12 03:44:14;;;;;;;23.90;18.60;;;22.40;78.30;;;;;;5020402;28;20034;-67
2023/09/12 03:46:40;;;;;;;22.88;19.33;;;22.40;78.30;;;;;;5021544;28;20045;-67
2023/09/12 03:49:05;;;;;;;24.25;19.90;;;22.40;78.40;;;;;;5023614;28;20029;-67
2023/09/12 03:51:31;;;;;;;27.65;19.65;;;22.40;78.40;;;;;;5023216;28;20104;-67
2023/09/12 03:53:57;;;;;;;25.35;20.40;;;22.40;78.40;;;;;;5020923;28;20443;-67
2023/09/12 03:56:23;;;;;;;24.17;19.20;;;22.40;78.50;;;;;;4997835;28;20121;-68
2023/09/12 03:58:49;;;;;;;25.20;18.85;;;22.30;78.50;;;;;;5017100;28;20104;-67
2023/09/12 04:01:15;;;;;;;26.17;20.92;;;22.40;78.70;;;;;;5023455;28;20052;-67
2023/09/12 04:03:41;;;;;;;25.33;20.20;;;22.40;78.80;;;;;;5002261;28;20387;-67
2023/09/12 04:06:07;;;;;;;26.30;20.42;;;22.40;78.90;;;;;;5022359;28;20080;-67
2023/09/12 04:08:33;;;;;;;25.55;21.50;;;22.50;79.00;;;;;;5018957;28;20025;-66
2023/09/12 04:10:58;;;;;;;26.45;22.00;;;22.50;79.10;;;;;;5024937;28;20056;-69
2023/09/12 04:13:24;;;;;;;29.35;21.45;;;22.50;79.10;;;;;;5013072;28;20026;-69
2023/09/12 04:15:50;;;;;;;31.23;24.33;;;22.50;79.20;;;;;;5024305;28;20026;-69
2023/09/12 04:18:16;;;;;;;30.35;22.42;;;22.50;79.30;;;;;;5016600;28;20037;-69
2023/09/12 04:20:42;;;;;;;28.85;23.10;;;22.50;79.30;;;;;;5021624;28;20037;-69
2023/09/12 04:23:07;;;;;;;29.65;22.60;;;22.50;79.30;;;;;;5001850;28;20518;-69
2023/09/12 04:25:33;;;;;;;25.50;20.40;;;22.50;79.20;;;;;;5014708;28;20033;-70
2023/09/12 04:27:59;;;;;;;27.13;20.58;;;22.50;79.20;;;;;;5018337;28;20112;-70
2023/09/12 04:30:25;;;;;;;26.20;20.42;;;22.50;79.20;;;;;;5020611;28;20125;-70
2023/09/12 04:32:51;;;;;;;27.48;21.00;;;22.50;79.20;;;;;;5017908;28;20021;-70
2023/09/12 04:35:19;;;;;;;30.35;22.38;;;22.50;79.30;;;;;;5028482;28;20029;-70
2023/09/12 04:37:46;;;;;;;29.92;21.70;;;22.40;79.30;;;;;;5029386;28;20509;-69
2023/09/12 04:40:12;;;;;;;30.70;21.73;;;22.40;79.40;;;;;;5025258;28;20124;-69
2023/09/12 04:42:41;;;;;;;32.60;23.15;;;22.40;79.50;;;;;;5025589;28;20104;-68
2023/09/12 04:45:07;;;;;;;30.20;21.08;;;22.40;79.50;;;;;;5022903;28;20033;-68
2023/09/12 04:47:33;;;;;;;28.20;22.33;;;22.40;79.50;;;;;;5035084;28;20185;-68
2023/09/12 04:50:01;;;;;;;28.05;22.17;;;22.50;79.50;;;;;;5033108;28;20136;-68
2023/09/12 04:52:26;;;;;;;33.30;23.38;;;22.40;79.50;;;;;;5029146;28;20021;-69
2023/09/12 04:54:52;;;;;;;31.63;23.20;;;22.50;79.60;;;;;;5019813;28;20025;-68
2023/09/12 04:57:18;;;;;;;35.88;25.98;;;22.40;79.60;;;;;;5023387;28;20037;-69
2023/09/12 04:59:44;;;;;;;38.90;27.60;;;22.40;79.70;;;;;;5026818;28;20482;-70
2023/09/12 05:02:10;;;;;;;37.20;28.75;;;22.50;80.40;;;;;;5031263;28;20025;-70
2023/09/12 05:04:35;;;;;;;40.83;29.15;;;22.50;79.80;;;;;;5037177;28;20029;-71
2023/09/12 05:07:02;;;;;;;37.13;27.92;;;22.50;79.80;;;;;;5023446;28;20058;-70
2023/09/12 05:09:28;;;;;;;38.97;28.23;;;22.40;79.90;;;;;;5033253;28;20029;-70
2023/09/12 05:11:54;;;;;;;38.42;28.40;;;22.50;80.00;;;;;;5032189;28;20033;-70
2023/09/12 05:14:19;;;;;;;38.45;28.00;;;22.40;80.00;;;;;;5030107;28;20037;-71
2023/09/12 05:16:46;;;;;;;37.60;27.48;;;22.40;80.10;;;;;;5019575;28;20084;-71
2023/09/12 05:19:12;;;;;;;34.45;27.50;;;22.40;80.20;;;;;;5027221;28;20029;-71
2023/09/12 05:21:38;;;;;;;35.25;26.33;;;22.40;80.40;;;;;;5025572;28;20116;-70
2023/09/12 05:24:05;;;;;;;38.45;27.48;;;22.40;80.40;;;;;;5033529;28;20374;-70
2023/09/12 05:26:31;;;;;;;36.83;26.48;;;22.40;80.50;;;;;;5022436;28;20024;-70
2023/09/12 05:28:57;;;;;;;34.70;26.50;;;22.40;80.50;;;;;;5030348;28;20035;-70
2023/09/12 05:31:23;;;;;;;37.15;26.92;;;22.50;80.60;;;;;;5001725;28;20034;-70
2023/09/12 05:33:49;;;;;;;38.70;28.90;;;22.50;80.50;;;;;;5021139;28;20720;-70
2023/09/12 05:36:15;;;;;;;45.17;28.17;;;22.50;80.60;;;;;;5009440;28;20191;-70
2023/09/12 05:38:41;;;;;;;36.63;26.80;;;22.50;80.60;;;;;;5030460;28;20056;-70
2023/09/12 05:41:06;;;;;;;35.30;28.83;;;22.50;80.60;;;;;;5030918;28;20459;-70
2023/09/12 05:43:32;;;;;;;34.17;27.10;;;22.50;80.60;;;;;;5023321;28;20030;-70
2023/09/12 05:45:58;;;;;;;37.92;29.35;;;22.40;80.60;;;;;;5025659;28;20021;-70
2023/09/12 05:48:24;;;;;;;36.55;27.88;;;22.50;80.70;;;;;;5033223;28;20025;-71
2023/09/12 05:50:50;;;;;;;39.53;29.42;;;22.50;80.70;;;;;;5025948;28;20481;-71
2023/09/12 05:53:16;;;;;;;40.95;29.30;;;22.40;80.80;;;;;;5027027;28;20068;-70
2023/09/12 05:55:42;;;;;;;38.33;29.25;;;22.50;80.90;;;;;;5023434;28;20120;-70
2023/09/12 05:58:08;;;;;;;36.70;28.42;;;22.40;80.80;;;;;;5026477;28;20022;-70
2023/09/12 06:00:35;;;;;;;41.35;29.17;;;22.50;80.80;;;;;;5008427;28;20021;-70
2023/09/12 06:03:00;;;;;;;43.83;30.10;;;22.40;80.70;;;;;;5034941;28;20453;-70
2023/09/12 06:05:26;;;;;;;44.65;30.27;;;22.50;80.90;;;;;;5021460;28;20485;-70
2023/09/12 06:07:52;;;;;;;41.95;30.58;;;22.50;80.80;;;;;;5003356;28;20029;-70
2023/09/12 06:10:18;;;;;;;38.53;29.10;;;22.50;80.70;;;;;;5037508;28;20033;-69
2023/09/12 06:12:44;;;;;;;40.42;29.58;;;22.60;80.60;;;;;;5036595;28;20056;-70
2023/09/12 06:15:10;;;;;;;45.17;30.88;;;22.60;80.60;;;;;;5036013;28;20029;-70
2023/09/12 06:17:35;;;;;;;41.70;29.88;;;22.60;81.30;;;;;;5036821;28;20105;-71
2023/09/12 06:20:03;;;;;;;42.92;30.98;;;22.60;80.60;;;;;;5041005;28;20027;-70
2023/09/12 06:22:29;;;;;;;48.70;33.58;;;22.60;80.60;;;;;;5027857;28;20026;-71
2023/09/12 06:24:54;;;;;;;41.38;30.50;;;22.60;80.60;;;;;;5029561;28;20025;-71
2023/09/12 06:27:20;;;;;;;42.28;30.95;;;22.60;80.60;;;;;;5027048;28;20033;-72
2023/09/12 06:29:50;;;;;;;43.50;32.58;;;22.70;80.60;;;;;;5023790;28;20061;-71
2023/09/12 06:32:17;;;;;;;46.58;33.05;;;22.70;80.50;;;;;;5027710;28;20443;-71
2023/09/12 06:34:43;;;;;;;46.28;33.15;;;22.60;80.40;;;;;;5029427;28;20080;-72
2023/09/12 06:37:11;;;;;;;47.20;31.50;;;22.70;80.50;;;;;;5008554;28;20029;-72
2023/09/12 06:39:37;;;;;;;44.90;34.35;;;22.70;80.60;;;;;;5028619;28;20029;-72
2023/09/12 06:42:03;;;;;;;48.17;34.75;;;22.70;80.60;;;;;;5012536;28;20439;-71
2023/09/12 06:44:29;;;;;;;52.97;36.13;;;22.60;80.50;;;;;;5026558;28;20029;-70
2023/09/12 06:46:54;;;;;;;47.85;34.70;;;22.60;80.50;;;;;;5023604;28;20042;-70
2023/09/12 06:49:20;;;;;;;49.75;33.45;;;22.60;80.40;;;;;;5030938;28;20021;-70
2023/09/12 06:51:46;;;;;;;47.35;32.53;;;22.60;80.40;;;;;;5025651;28;20029;-70
2023/09/12 06:54:12;;;;;;;44.53;31.33;;;22.60;80.50;;;;;;5029295;28;20025;-70
2023/09/12 06:56:41;;;;;;;46.70;32.60;;;22.60;80.50;;;;;;5026878;28;20421;-72
2023/09/12 06:59:07;;;;;;;43.25;32.15;;;22.60;80.50;;;;;;5026445;28;20041;-71
2023/09/12 07:01:33;;;;;;;40.83;30.08;;;22.60;80.50;;;;;;5023492;28;20018;-72
2023/09/12 07:03:59;;;;;;;41.90;30.48;;;22.60;80.50;;;;;;5024455;28;20037;-69
2023/09/12 07:06:24;;;;;;;45.85;30.55;;;22.60;80.60;;;;;;5020474;28;20026;-74
2023/09/12 07:08:51;;;;;;;44.67;32.72;;;22.50;80.50;;;;;;5020716;28;20677;-70
2023/09/12 07:11:19;;;;;;;47.03;31.73;;;22.50;80.50;;;;;;5022104;28;20048;-73
2023/09/12 07:13:45;;;;;;;41.53;30.65;;;22.60;80.50;;;;;;5027902;28;20029;-73
2023/09/12 07:16:10;;;;;;;44.88;30.88;;;22.60;80.50;;;;;;5032102;28;20047;-74
2023/09/12 07:18:36;;;;;;;42.65;30.65;;;22.60;80.40;;;;;;5025626;28;20332;-73
2023/09/12 07:21:04;;;;;;;40.28;29.88;;;22.70;80.40;;;;;;5026727;28;20112;-74
2023/09/12 07:23:30;;;;;;;40.92;29.70;;;22.70;80.40;;;;;;5025636;28;20061;-73
2023/09/12 07:25:57;;;;;;;45.10;30.35;;;22.70;80.10;;;;;;5021467;28;20049;-73
2023/09/12 07:28:26;;;;;;;42.95;31.42;;;22.80;80.00;;;;;;5023972;28;20029;-72
2023/09/12 07:30:53;;;;;;;42.50;30.20;;;22.80;79.80;;;;;;5025924;28;20032;-73
2023/09/12 07:33:20;;;;;;;37.38;29.00;;;22.90;79.80;;;;;;5030988;28;20025;-73
2023/09/12 07:35:46;;;;;;;42.65;30.13;;;22.90;79.60;;;;;;5021581;28;20030;-73
2023/09/12 07:38:15;;;;;;;41.60;29.77;;;23.00;79.50;;;;;;5030544;28;20466;-72
2023/09/12 07:40:41;;;;;;;37.55;28.15;;;23.00;79.50;;;;;;5013168;28;20367;-71
2023/09/12 07:43:07;;;;;;;38.05;28.73;;;23.00;79.50;;;;;;5033479;28;20465;-72
2023/09/12 07:45:36;;;;;;;39.47;28.25;;;23.00;79.50;;;;;;5024252;28;20057;-72
2023/09/12 07:48:05;;;;;;;38.58;28.27;;;23.00;79.50;;;;;;5018042;28;20033;-72
2023/09/12 07:50:31;;;;;;;39.42;28.42;;;23.10;79.40;;;;;;5033984;28;20029;-72
2023/09/12 07:52:57;;;;;;;37.78;28.80;;;23.10;79.20;;;;;;5034535;28;20445;-72
2023/09/12 07:55:23;;;;;;;42.75;31.40;;;23.10;78.90;;;;;;5033600;28;20029;-73
2023/09/12 07:57:48;;;;;;;39.97;28.98;;;23.20;78.80;;;;;;5027129;28;20022;-72
2023/09/12 08:00:14;;;;;;;41.40;30.17;;;23.20;78.70;;;;;;5034293;28;20072;-72
2023/09/12 08:02:40;;;;;;;41.42;28.80;;;23.20;78.70;;;;;;5034324;28;20029;-73
2023/09/12 08:05:07;;;;;;;40.92;30.50;;;23.20;78.70;;;;;;5033454;28;20072;-72
2023/09/12 08:07:34;;;;;;;40.08;29.38;;;23.20;78.70;;;;;;5032576;28;20124;-73
2023/09/12 08:09:59;;;;;;;39.53;28.40;;;23.20;78.70;;;;;;5034342;28;20025;-73
2023/09/12 08:12:27;;;;;;;37.85;29.38;;;23.30;78.60;;;;;;5033913;28;20076;-73
2023/09/12 08:14:53;;;;;;;38.00;29.00;;;23.30;78.50;;;;;;5033611;28;20021;-73
2023/09/12 08:17:22;;;;;;;41.55;28.75;;;23.30;78.60;;;;;;5011416;28;20026;-73
2023/09/12 08:19:48;;;;;;;37.88;26.45;;;23.40;78.60;;;;;;5031422;28;20021;-73
2023/09/12 08:22:14;;;;;;;38.08;29.13;;;23.60;78.30;;;;;;5034098;28;20052;-73
2023/09/12 08:24:40;;;;;;;37.28;27.20;;;23.90;77.70;;;;;;5033692;28;20026;-73
2023/09/12 08:27:07;;;;;;;37.55;26.00;;;24.10;77.10;;;;;;5032921;28;20021;-73
2023/09/12 08:29:33;;;;;;;34.85;24.88;;;24.20;76.60;;;;;;5024115;28;20053;-73
2023/09/12 08:32:00;;;;;;;33.67;25.80;;;24.20;76.30;;;;;;5015614;28;20113;-73
2023/09/12 08:34:26;;;;;;;33.63;23.83;;;24.20;76.30;;;;;;5033816;28;20116;-73
2023/09/12 08:36:52;;;;;;;31.90;24.60;;;24.30;76.00;;;;;;5009540;28;20112;-73
2023/09/12 08:39:26;;;;;;;35.85;26.25;;;24.40;75.70;;;;;;5031996;28;20037;-72
2023/09/12 08:41:53;;;;;;;33.83;24.15;;;24.70;75.30;;;;;;5034896;28;20025;-72
2023/09/12 08:44:20;;;;;;;31.92;23.60;;;24.90;74.90;;;;;;5034792;28;20033;-72
2023/09/12 08:46:47;;;;;;;35.50;25.08;;;25.00;74.30;;;;;;5031558;28;20447;-73
2023/09/12 08:49:13;;;;;;;31.17;23.48;;;25.20;73.80;;;;;;5029659;28;20366;-73
2023/09/12 08:51:39;;;;;;;31.88;24.13;;;25.40;73.50;;;;;;5023202;28;20041;-73
2023/09/12 08:54:06;;;;;;;33.13;23.85;;;25.50;72.90;;;;;;5033357;28;20049;-73
2023/09/12 08:56:34;;;;;;;31.27;23.77;;;25.70;72.50;;;;;;5034055;28;20099;-73
2023/09/12 08:59:03;;;;;;;30.65;22.40;;;25.90;71.90;;;;;;5031954;28;20025;-73
2023/09/12 09:01:35;;;;;;;30.27;21.33;;;26.00;71.40;;;;;;5033796;28;20033;-73
2023/09/12 09:04:03;;;;;;;29.15;22.38;;;26.10;70.80;;;;;;5033205;28;20116;-73
2023/09/12 09:06:37;;;;;;;31.88;22.63;;;26.10;70.60;;;;;;5036591;28;20026;-73
2023/09/12 09:09:05;;;;;;;33.83;23.83;;;26.10;70.50;;;;;;5035408;28;20026;-72
2023/09/12 09:11:31;;;;;;;28.75;21.80;;;26.20;70.10;;;;;;5017911;28;20041;-72
2023/09/12 09:13:56;;;;;;;25.08;19.70;;;26.30;70.60;;;;;;5027473;28;20029;-72
2023/09/12 09:16:23;;;;;;;29.80;21.00;;;26.30;69.50;;;;;;5033734;28;20076;-72
2023/09/12 09:19:05;;;;;;;24.58;19.42;;;26.50;69.90;;;;;;5040134;28;20033;-72
2023/09/12 09:21:32;;;;;;;26.50;18.55;;;26.60;68.60;;;;;;5028866;28;20025;-72
2023/09/12 09:24:00;;;;;;;27.17;19.10;;;26.60;68.60;;;;;;5031626;28;20029;-74
2023/09/12 09:26:47;;;;;;;25.83;16.98;;;26.70;68.30;;;;;;5034932;28;21270;-71
2023/09/12 09:29:17;;;;;;;23.00;17.70;;;26.90;67.80;;;;;;5013538;28;20033;-73
2023/09/12 09:31:44;;;;;;;22.20;17.13;;;27.10;67.40;;;;;;5044167;28;20346;-74
2023/09/12 09:34:18;;;;;;;23.35;16.90;;;27.20;66.90;;;;;;5031436;28;20026;-71
2023/09/12 09:36:49;;;;;;;23.90;15.95;;;27.40;66.40;;;;;;5037965;28;20029;-70
2023/09/12 09:39:16;;;;;;;21.77;15.45;;;27.30;65.70;;;;;;5036428;28;20343;-77
2023/09/12 09:41:46;;;;;;;18.77;14.30;;;27.00;65.80;;;;;;5035526;28;20465;-75
2023/09/12 09:44:13;;;;;;;20.92;16.08;;;26.80;66.30;;;;;;5036687;28;20025;-75
2023/09/12 09:46:43;;;;;;;20.70;14.88;;;26.80;66.30;;;;;;5042986;28;20021;-73
2023/09/12 09:49:17;;;;;;;20.80;14.90;;;26.90;66.20;;;;;;5017865;28;20029;-75
2023/09/12 09:51:44;;;;;;;21.55;14.70;;;27.00;66.40;;;;;;5036128;28;20032;-74
2023/09/12 09:54:14;;;;;;;23.17;16.23;;;27.00;65.70;;;;;;5036715;28;20108;-73
2023/09/12 09:56:54;;;;;;;20.48;15.45;;;27.00;65.80;;;;;;5039725;28;20020;-74
2023/09/12 09:59:24;;;;;;;19.77;15.30;;;27.00;65.70;;;;;;5034018;28;20096;-75
2023/09/12 10:01:52;;;;;;;19.70;14.32;;;26.90;65.80;;;;;;5040879;28;20021;-75
2023/09/12 10:04:18;;;;;;;18.73;13.70;;;26.60;66.20;;;;;;5040844;28;20343;-75
2023/09/12 10:06:46;;;;;;;18.63;13.80;;;26.60;66.40;;;;;;5036754;28;20032;-72
2023/09/12 10:09:13;;;;;;;16.88;12.18;;;26.50;66.10;;;;;;5038240;28;20025;-74
2023/09/12 10:11:42;;;;;;;17.85;13.02;;;26.40;66.30;;;;;;5032932;28;20061;-74
2023/09/12 10:14:08;;;;;;;17.55;12.52;;;26.40;66.30;;;;;;5039424;28;20131;-74
2023/09/12 10:16:36;;;;;;;15.15;10.95;;;26.40;66.30;;;;;;5036664;28;20327;-74
2023/09/12 10:19:27;;;;;;;15.77;12.25;;;26.30;66.20;;;;;;5039024;28;20410;-75
2023/09/12 10:22:18;;;;;;;18.00;12.25;;;26.30;66.30;;;;;;5020012;28;20051;-76
2023/09/12 10:24:45;;;;;;;15.73;11.43;;;26.30;65.80;;;;;;5034952;28;20030;-73
2023/09/12 10:27:13;;;;;;;15.00;10.30;;;26.50;65.50;;;;;;5036097;28;20032;-73
2023/09/12 10:29:39;;;;;;;16.20;10.90;;;26.70;65.40;;;;;;5044045;28;20330;-73
2023/09/12 10:32:05;;;;;;;18.10;12.15;;;26.90;65.00;;;;;;5017584;28;20021;-73
2023/09/12 10:34:32;;;;;;;16.75;11.82;;;26.90;64.50;;;;;;5044034;28;20494;-74
2023/09/12 10:37:05;;;;;;;15.65;11.70;;;26.90;64.40;;;;;;5032788;28;20021;-73
2023/09/12 10:39:32;;;;;;;16.02;10.82;;;26.70;64.30;;;;;;5044773;28;20032;-73
2023/09/12 10:41:59;;;;;;;15.68;11.10;;;26.60;64.30;;;;;;5036094;28;20030;-73
2023/09/12 10:44:26;;;;;;;15.68;11.02;;;26.50;64.50;;;;;;5037197;28;20026;-73
2023/09/12 10:46:54;;;;;;;14.52;10.35;;;26.60;64.80;;;;;;5014664;28;20029;-75
2023/09/12 10:49:20;;;;;;;15.63;10.63;;;26.60;64.90;;;;;;5024424;28;20033;-72
2023/09/12 10:51:47;;;;;;;16.25;9.88;;;26.80;64.60;;;;;;5032106;28;20029;-75
2023/09/12 10:54:25;;;;;;;16.13;10.70;;;27.00;64.20;;;;;;5034098;28;20048;-75
2023/09/12 10:57:13;;;;;;;16.40;10.25;;;27.00;63.50;;;;;;5046701;28;20025;-72
2023/09/12 11:00:10;;;;;;;14.07;8.63;;;27.10;64.00;;;;;;5043375;28;20179;-76
2023/09/12 11:02:40;;;;;;;14.60;8.90;;;27.30;63.60;;;;;;5006427;28;20042;-76
2023/09/12 11:05:27;;;;;;;13.70;9.70;;;27.50;63.20;;;;;;5038323;28;20041;-74
2023/09/12 11:07:57;;;;;;;15.73;9.30;;;27.60;62.20;;;;;;5035272;28;20033;-72
2023/09/12 11:10:24;;;;;;;13.20;9.60;;;27.50;62.10;;;;;;5022784;28;20029;-70
2023/09/12 11:12:57;;;;;;;15.77;9.70;;;27.40;62.30;;;;;;5033497;28;20048;-75
2023/09/12 11:15:31;;;;;;;13.13;9.15;;;27.20;61.90;;;;;;5037144;28;20022;-74
2023/09/12 11:18:05;;;;;;;13.05;8.15;;;27.20;62.20;;;;;;5035037;28;20030;-74
2023/09/12 11:20:51;;;;;;;12.00;7.50;;;27.20;62.30;;;;;;5039006;28;20125;-76
2023/09/12 11:23:17;;;;;;;10.63;6.95;;;27.30;62.10;;;;;;5028793;28;20022;-73
2023/09/12 11:25:43;;;;;;;10.52;6.00;;;27.20;61.70;;;;;;5058584;28;20443;-74
2023/09/12 11:28:09;;;;;;;11.57;7.00;;;27.30;61.50;;;;;;5025507;28;20028;-73
2023/09/12 11:30:35;;;;;;;12.35;6.63;;;27.50;60.60;;;;;;5039316;28;21243;-74
2023/09/12 11:33:04;;;;;;;10.23;6.40;;;27.50;60.00;;;;;;5032209;28;20116;-72
2023/09/12 11:35:37;;;;;;;14.97;9.17;;;27.60;60.10;;;;;;5035550;28;20021;-74
2023/09/12 11:38:02;;;;;;;15.35;10.15;;;27.80;59.70;;;;;;5036219;28;20098;-73
2023/09/12 11:40:34;;;;;;;12.70;7.63;;;27.80;59.60;;;;;;5045379;28;20426;-72
2023/09/12 11:43:01;;;;;;;12.75;7.97;;;27.90;59.70;;;;;;5039041;28;20028;-73
2023/09/12 11:45:29;;;;;;;12.13;7.78;;;28.00;59.60;;;;;;5044737;28;20115;-73
2023/09/12 11:47:55;;;;;;;13.43;8.05;;;28.00;59.50;;;;;;5046109;28;20026;-74
2023/09/12 11:50:32;;;;;;;11.35;7.10;;;28.00;59.30;;;;;;5041449;28;20120;-73
2023/09/12 11:53:11;;;;;;;10.23;6.18;;;28.10;59.10;;;;;;5047525;28;20033;-76
2023/09/12 11:55:48;;;;;;;10.10;5.90;;;28.20;59.10;;;;;;5040557;28;20293;-75
2023/09/12 11:58:16;;;;;;;9.32;5.47;;;28.30;58.90;;;;;;5038051;28;20402;-76
2023/09/12 12:01:00;;;;;;;10.93;5.68;;;28.40;58.80;;;;;;5048499;28;20388;-74
2023/09/12 12:03:27;;;;;;;10.57;6.18;;;28.40;58.50;;;;;;5033936;28;20039;-72
2023/09/12 12:05:55;;;;;;;10.50;6.03;;;28.40;58.20;;;;;;5034763;28;20037;-69
2023/09/12 12:08:22;;;;;;;10.98;6.22;;;28.40;58.00;;;;;;5032808;28;20349;-72
2023/09/12 12:10:52;;;;;;;8.80;5.47;;;28.40;57.70;;;;;;5024739;28;20107;-72
2023/09/12 12:13:19;;;;;;;8.80;4.75;;;28.40;57.80;;;;;;5046001;28;20087;-72
2023/09/12 12:15:46;;;;;;;9.57;4.45;;;28.30;58.00;;;;;;5022410;28;20048;-72
2023/09/12 12:18:11;;;;;;;7.43;4.10;;;28.30;58.10;;;;;;5018664;28;20037;-72
2023/09/12 12:20:37;;;;;;;7.55;4.07;;;28.40;57.90;;;;;;5007205;28;20080;-72
2023/09/12 12:23:03;;;;;;;9.57;5.40;;;28.50;57.80;;;;;;5007445;28;20388;-71
2023/09/12 12:25:35;;;;;;;6.95;3.90;;;28.50;57.20;;;;;;5020321;28;20072;-71
2023/09/12 12:28:03;;;;;;;7.72;4.47;;;28.50;57.20;;;;;;5056661;28;20436;-71
2023/09/12 12:30:35;;;;;;;11.23;4.90;;;28.50;56.90;;;;;;5024050;28;20032;-71